createdAt,value
2023-04-28T00:01:41.750Z,2.70
2023-04-28T00:04:08.945Z,2.70
2023-04-28T00:06:35.779Z,2.60
2023-04-28T00:09:03.549Z,2.60
2023-04-28T00:11:30.196Z,2.60
2023-04-28T00:13:56.810Z,2.60
2023-04-28T00:16:24.229Z,2.50
2023-04-28T00:18:51.345Z,2.50
2023-04-28T00:21:18.058Z,2.50
2023-04-28T00:23:44.978Z,2.40
2023-04-28T00:26:12.427Z,2.40
2023-04-28T00:28:39.166Z,2.30
2023-04-28T00:31:13.109Z,2.30
2023-04-28T00:33:41.175Z,2.30
2023-04-28T00:36:08.470Z,2.30
2023-04-28T00:38:35.817Z,2.30
2023-04-28T00:41:02.483Z,2.20
2023-04-28T00:43:29.397Z,2.20
2023-04-28T00:45:56.532Z,2.20
2023-04-28T00:48:24.311Z,2.20
2023-04-28T00:50:52.039Z,2.20
2023-04-28T00:53:18.695Z,2.20
2023-04-28T00:55:46.855Z,2.20
2023-04-28T00:58:13.692Z,2.10
2023-04-28T01:00:40.587Z,2.00
2023-04-28T01:03:08.087Z,2.10
2023-04-28T01:05:35.895Z,2.00
2023-04-28T01:08:03.150Z,2.00
2023-04-28T01:10:29.787Z,2.00
2023-04-28T01:12:56.398Z,1.90
2023-04-28T01:15:23.174Z,1.90
2023-04-28T01:17:49.922Z,1.90
2023-04-28T01:20:16.606Z,1.90
2023-04-28T01:22:43.321Z,1.90
2023-04-28T01:25:09.927Z,1.90
2023-04-28T01:27:36.644Z,1.80
2023-04-28T01:30:03.834Z,1.80
2023-04-28T01:32:30.502Z,1.80
2023-04-28T01:34:57.140Z,1.80
2023-04-28T01:37:24.109Z,1.80
2023-04-28T01:39:50.978Z,1.80
2023-04-28T01:42:17.577Z,1.80
2023-04-28T01:44:44.256Z,1.70
2023-04-28T01:47:11.188Z,1.80
2023-04-28T01:49:37.780Z,1.80
2023-04-28T01:52:04.652Z,1.70
2023-04-28T01:54:31.445Z,1.80
2023-04-28T01:56:58.059Z,1.80
2023-04-28T01:59:24.724Z,1.80
2023-04-28T02:01:51.579Z,1.80
2023-04-28T02:04:18.730Z,1.80
2023-04-28T02:06:45.643Z,1.80
2023-04-28T02:09:12.241Z,1.70
2023-04-28T02:11:38.821Z,1.70
2023-04-28T02:14:05.598Z,1.80
2023-04-28T02:16:33.943Z,1.80
2023-04-28T02:19:00.773Z,1.70
2023-04-28T02:21:27.887Z,1.70
2023-04-28T02:23:54.681Z,1.80
2023-04-28T02:26:21.457Z,1.80
2023-04-28T02:28:49.193Z,1.80
2023-04-28T02:31:16.034Z,1.80
2023-04-28T02:33:42.812Z,1.70
2023-04-28T02:36:09.811Z,1.70
2023-04-28T02:38:36.630Z,1.70
2023-04-28T02:41:05.623Z,1.70
2023-04-28T02:43:33.079Z,1.70
2023-04-28T02:46:00.134Z,1.70
2023-04-28T02:48:27.082Z,1.70
2023-04-28T02:50:53.967Z,1.70
2023-04-28T02:53:21.595Z,1.70
2023-04-28T02:55:48.803Z,1.70
2023-04-28T02:58:16.187Z,1.70
2023-04-28T03:00:42.779Z,1.60
2023-04-28T03:03:09.594Z,1.60
2023-04-28T03:05:36.501Z,1.60
2023-04-28T03:08:03.245Z,1.60
2023-04-28T03:10:29.940Z,1.60
2023-04-28T03:12:56.602Z,1.70
2023-04-28T03:15:23.213Z,1.70
2023-04-28T03:17:50.117Z,1.60
2023-04-28T03:20:16.846Z,1.60
2023-04-28T03:22:43.899Z,1.60
2023-04-28T03:25:10.599Z,1.70
2023-04-28T03:27:37.266Z,1.70
2023-04-28T03:30:04.338Z,1.70
2023-04-28T03:32:30.951Z,1.70
2023-04-28T03:34:57.600Z,1.70
2023-04-28T03:37:24.325Z,1.70
2023-04-28T03:39:51.098Z,1.70
2023-04-28T03:42:17.749Z,1.70
2023-04-28T03:44:44.437Z,1.70
2023-04-28T03:47:11.870Z,1.80
2023-04-28T03:49:38.581Z,1.80
2023-04-28T03:52:05.220Z,1.80
2023-04-28T03:54:32.079Z,1.90
2023-04-28T03:56:59.572Z,1.90
2023-04-28T03:59:26.832Z,2.00
2023-04-28T04:01:53.600Z,2.00
2023-04-28T04:04:20.678Z,1.90
2023-04-28T04:06:47.889Z,1.90
2023-04-28T04:09:14.672Z,1.90
2023-04-28T04:11:41.435Z,1.90
2023-04-28T04:14:08.064Z,1.90
2023-04-28T04:16:36.341Z,2.00
2023-04-28T04:19:03.070Z,2.00
2023-04-28T04:21:29.920Z,2.10
2023-04-28T04:23:56.581Z,2.10
2023-04-28T04:26:23.367Z,2.20
2023-04-28T04:28:50.041Z,2.20
2023-04-28T04:31:16.739Z,2.30
2023-04-28T04:33:43.760Z,2.30
2023-04-28T04:36:10.488Z,2.30
2023-04-28T04:38:37.242Z,2.40
2023-04-28T04:41:03.893Z,2.40
2023-04-28T04:43:30.778Z,2.40
2023-04-28T04:45:57.450Z,2.50
2023-04-28T04:48:24.071Z,2.50
2023-04-28T04:50:50.700Z,2.60
2023-04-28T04:53:17.383Z,2.70
2023-04-28T04:55:44.005Z,2.70
2023-04-28T04:58:10.755Z,2.80
2023-04-28T05:00:37.871Z,2.90
2023-04-28T05:03:06.333Z,2.90
2023-04-28T05:05:33.202Z,3.00
2023-04-28T05:08:00.145Z,3.00
2023-04-28T05:10:27.495Z,3.10
2023-04-28T05:12:54.331Z,3.10
2023-04-28T05:15:21.168Z,3.20
2023-04-28T05:17:47.963Z,3.30
2023-04-28T05:20:14.924Z,3.30
2023-04-28T05:22:41.826Z,3.30
2023-04-28T05:25:09.145Z,3.40
2023-04-28T05:27:39.159Z,3.40
2023-04-28T05:30:07.656Z,3.40
2023-04-28T05:32:35.995Z,3.50
2023-04-28T05:35:03.365Z,3.60
2023-04-28T05:37:29.994Z,3.70
2023-04-28T05:39:56.628Z,3.90
2023-04-28T05:42:23.361Z,4.00
2023-04-28T05:44:49.989Z,4.20
2023-04-28T05:47:16.662Z,4.40
2023-04-28T05:49:43.412Z,4.50
2023-04-28T05:52:10.093Z,4.70
2023-04-28T05:54:36.784Z,4.80
2023-04-28T05:57:03.572Z,5.00
2023-04-28T05:59:31.677Z,5.20
2023-04-28T06:01:58.380Z,5.40
2023-04-28T06:04:26.495Z,5.50
2023-04-28T06:06:53.524Z,5.60
2023-04-28T06:09:20.404Z,5.60
2023-04-28T06:11:47.114Z,5.70
2023-04-28T06:14:13.862Z,5.90
2023-04-28T06:16:40.756Z,6.10
2023-04-28T06:19:07.541Z,6.20
2023-04-28T06:21:34.298Z,6.40
2023-04-28T06:24:02.039Z,6.50
2023-04-28T06:26:29.220Z,6.80
2023-04-28T06:28:55.906Z,6.90
2023-04-28T06:31:22.727Z,7.10
2023-04-28T06:33:49.383Z,7.20
2023-04-28T06:36:17.968Z,7.30
2023-04-28T06:38:46.059Z,7.40
2023-04-28T06:41:13.077Z,7.70
2023-04-28T06:43:39.758Z,7.80
2023-04-28T06:46:06.637Z,7.90
2023-04-28T06:48:33.701Z,8.00
2023-04-28T06:51:00.483Z,8.20
2023-04-28T06:53:27.247Z,8.30
2023-04-28T06:55:54.022Z,8.50
2023-04-28T06:58:20.902Z,8.60
2023-04-28T07:00:47.802Z,8.80
2023-04-28T07:03:14.553Z,8.90
2023-04-28T07:05:41.428Z,8.90
2023-04-28T07:08:08.070Z,9.10
2023-04-28T07:10:34.698Z,9.20
2023-04-28T07:13:01.387Z,9.30
2023-04-28T07:15:28.626Z,9.30
2023-04-28T07:17:55.766Z,9.40
2023-04-28T07:20:22.606Z,9.60
2023-04-28T07:22:49.327Z,9.60
2023-04-28T07:25:16.002Z,9.70
2023-04-28T07:27:42.770Z,9.80
2023-04-28T07:30:25.929Z,9.90
2023-04-28T07:32:53.779Z,10.10
2023-04-28T07:35:20.416Z,10.20
2023-04-28T07:37:47.300Z,10.30
2023-04-28T07:40:14.067Z,10.30
2023-04-28T07:42:41.100Z,10.40
2023-04-28T07:45:08.200Z,10.40
2023-04-28T07:47:35.234Z,10.50
2023-04-28T07:50:06.592Z,10.60
2023-04-28T07:52:34.132Z,10.70
2023-04-28T07:55:02.309Z,10.70
2023-04-28T07:57:31.728Z,10.80
2023-04-28T07:59:58.446Z,10.80
2023-04-28T08:02:26.194Z,11.00
2023-04-28T08:04:53.145Z,11.10
2023-04-28T08:07:20.197Z,11.10
2023-04-28T08:09:48.294Z,11.10
2023-04-28T08:12:15.628Z,11.20
2023-04-28T08:14:42.715Z,11.30
2023-04-28T08:17:09.778Z,11.40
2023-04-28T08:19:36.603Z,11.40
2023-04-28T08:22:07.150Z,11.50
2023-04-28T08:24:34.495Z,11.70
2023-04-28T08:27:03.623Z,11.80
2023-04-28T08:29:31.889Z,11.90
2023-04-28T08:31:58.933Z,12.00
2023-04-28T08:34:25.951Z,12.10
2023-04-28T08:36:53.569Z,12.10
2023-04-28T08:39:23.793Z,12.20
2023-04-28T08:41:50.709Z,12.30
2023-04-28T08:44:18.504Z,12.50
2023-04-28T08:46:47.276Z,12.60
2023-04-28T08:49:18.761Z,12.60
2023-04-28T08:51:49.981Z,12.70
2023-04-28T08:54:26.097Z,12.90
2023-04-28T08:56:54.312Z,13.00
2023-04-28T08:59:21.403Z,13.10
2023-04-28T09:01:51.602Z,13.10
2023-04-28T09:04:18.887Z,13.20
2023-04-28T09:06:46.490Z,13.30
2023-04-28T09:09:27.582Z,13.30
2023-04-28T09:11:59.607Z,13.40
2023-04-28T09:14:27.921Z,13.50
2023-04-28T09:16:54.932Z,13.60
2023-04-28T09:19:22.601Z,13.70
2023-04-28T09:21:52.478Z,13.80
2023-04-28T09:24:37.119Z,13.80
2023-04-28T09:27:07.550Z,13.90
2023-04-28T09:29:34.252Z,14.10
2023-04-28T09:32:22.331Z,14.10
2023-04-28T09:34:56.727Z,14.20
2023-04-28T09:37:26.085Z,14.20
2023-04-28T09:39:54.683Z,14.40
2023-04-28T09:42:32.433Z,14.50
2023-04-28T09:44:59.262Z,14.50
2023-04-28T09:47:26.102Z,14.60
2023-04-28T09:49:56.989Z,14.70
2023-04-28T09:52:24.641Z,14.60
2023-04-28T09:54:52.674Z,14.70
2023-04-28T09:57:19.884Z,14.80
2023-04-28T09:59:48.710Z,14.90
2023-04-28T10:02:42.097Z,15.00
2023-04-28T10:05:09.923Z,15.10
2023-04-28T10:07:37.498Z,15.20
2023-04-28T10:10:05.356Z,15.40
2023-04-28T10:12:32.986Z,15.50
2023-04-28T10:15:00.445Z,15.60
2023-04-28T10:17:29.791Z,15.70
2023-04-28T10:19:57.586Z,15.80
2023-04-28T10:22:53.562Z,15.90
2023-04-28T10:25:36.648Z,16.00
2023-04-28T10:28:08.515Z,16.00
2023-04-28T10:30:36.082Z,16.30
2023-04-28T10:33:09.437Z,16.40
2023-04-28T10:35:37.411Z,16.40
2023-04-28T10:38:15.430Z,16.50
2023-04-28T10:40:46.661Z,16.70
2023-04-28T10:43:14.762Z,16.90
2023-04-28T10:45:56.265Z,17.00
2023-04-28T10:48:46.894Z,17.30
2023-04-28T10:51:16.665Z,17.60
2023-04-28T10:53:47.422Z,17.80
2023-04-28T10:56:20.043Z,17.80
2023-04-28T10:58:48.463Z,17.90
2023-04-28T11:01:21.541Z,17.90
2023-04-28T11:03:51.768Z,17.90
2023-04-28T11:06:34.503Z,17.80
2023-04-28T11:09:04.011Z,17.80
2023-04-28T11:11:35.154Z,18.00
2023-04-28T11:14:17.306Z,18.00
2023-04-28T11:16:50.938Z,18.00
2023-04-28T11:19:24.447Z,17.90
2023-04-28T11:21:53.509Z,18.00
2023-04-28T11:24:20.297Z,17.90
2023-04-28T11:26:47.269Z,18.20
2023-04-28T11:29:15.401Z,18.50
2023-04-28T11:31:50.959Z,18.80
2023-04-28T11:34:24.527Z,19.10
2023-04-28T11:36:54.139Z,19.30
2023-04-28T11:39:32.810Z,19.20
2023-04-28T11:42:02.483Z,19.00
2023-04-28T11:44:30.659Z,18.90
2023-04-28T11:47:03.256Z,19.00
2023-04-28T11:49:33.764Z,19.10
2023-04-28T11:52:08.126Z,18.90
2023-04-28T11:54:35.571Z,19.00
2023-04-28T11:57:05.677Z,18.60
2023-04-28T11:59:34.256Z,18.70
2023-04-28T12:02:03.381Z,18.60
2023-04-28T12:04:42.421Z,18.80
2023-04-28T12:07:14.528Z,18.80
2023-04-28T12:09:47.456Z,19.00
2023-04-28T12:12:18.355Z,18.90
2023-04-28T12:15:14.567Z,18.90
2023-04-28T12:17:42.282Z,19.20
2023-04-28T12:20:33.210Z,19.40
2023-04-28T12:22:59.942Z,19.50
2023-04-28T12:25:26.716Z,19.60
2023-04-28T12:28:04.196Z,19.60
2023-04-28T12:30:33.398Z,19.60
2023-04-28T12:33:00.364Z,19.70
2023-04-28T12:35:28.306Z,19.60
2023-04-28T12:37:56.844Z,19.40
2023-04-28T12:40:24.460Z,19.50
2023-04-28T12:42:51.694Z,19.60
2023-04-28T12:45:18.556Z,19.70
2023-04-28T12:47:45.232Z,19.60
2023-04-28T12:50:12.270Z,19.80
2023-04-28T12:52:39.234Z,20.00
2023-04-28T12:55:06.519Z,20.00
2023-04-28T12:57:33.146Z,20.20
2023-04-28T12:59:59.932Z,20.30
2023-04-28T13:02:26.590Z,20.20
2023-04-28T13:04:53.728Z,20.10
2023-04-28T13:07:20.858Z,19.90
2023-04-28T13:09:48.048Z,20.00
2023-04-28T13:12:15.725Z,19.90
2023-04-28T13:14:42.513Z,19.90
2023-04-28T13:17:10.409Z,19.90
2023-04-28T13:19:37.958Z,19.80
2023-04-28T13:22:06.741Z,19.50
2023-04-28T13:24:34.517Z,19.40
2023-04-28T13:27:02.765Z,19.30
2023-04-28T13:29:30.086Z,19.20
2023-04-28T13:31:56.878Z,19.10
2023-04-28T13:34:23.555Z,18.90
2023-04-28T13:36:51.112Z,18.70
2023-04-28T13:39:20.167Z,18.70
2023-04-28T13:41:47.011Z,18.70
2023-04-28T13:44:13.991Z,18.60
2023-04-28T13:46:40.609Z,18.60
2023-04-28T13:49:08.053Z,18.60
2023-04-28T13:51:35.206Z,18.60
2023-04-28T13:54:04.606Z,18.50
2023-04-28T13:56:32.146Z,18.30
2023-04-28T13:58:58.942Z,18.10
2023-04-28T14:01:25.869Z,18.00
2023-04-28T14:03:52.693Z,17.90
2023-04-28T14:06:19.854Z,18.00
2023-04-28T14:08:46.780Z,18.10
2023-04-28T14:11:13.437Z,18.20
2023-04-28T14:13:40.082Z,18.10
2023-04-28T14:16:07.291Z,18.10
2023-04-28T14:18:34.497Z,18.20
2023-04-28T14:21:02.275Z,18.10
2023-04-28T14:23:29.865Z,18.00
2023-04-28T14:25:58.141Z,18.00
2023-04-28T14:28:24.856Z,17.90
2023-04-28T14:30:52.728Z,17.80
2023-04-28T14:33:19.395Z,17.70
2023-04-28T14:35:46.093Z,17.70
2023-04-28T14:38:13.917Z,17.60
2023-04-28T14:40:40.704Z,17.60
2023-04-28T14:43:07.445Z,17.60
2023-04-28T14:45:36.981Z,17.60
2023-04-28T14:48:03.862Z,17.70
2023-04-28T14:50:30.716Z,17.70
2023-04-28T14:52:59.980Z,17.60
2023-04-28T14:55:26.625Z,17.60
2023-04-28T14:57:53.402Z,17.50
2023-04-28T15:00:20.074Z,17.20
2023-04-28T15:02:46.854Z,17.20
2023-04-28T15:05:13.630Z,17.10
2023-04-28T15:07:40.539Z,17.10
2023-04-28T15:10:07.857Z,17.10
2023-04-28T15:12:35.374Z,16.90
2023-04-28T15:15:02.113Z,16.80
2023-04-28T15:17:28.892Z,16.80
2023-04-28T15:19:55.809Z,16.70
2023-04-28T15:22:22.851Z,16.60
2023-04-28T15:24:49.651Z,16.60
2023-04-28T15:27:16.416Z,16.60
2023-04-28T15:29:43.188Z,16.60
2023-04-28T15:32:09.826Z,16.60
2023-04-28T15:34:36.518Z,16.60
2023-04-28T15:37:25.641Z,16.60
2023-04-28T15:39:52.276Z,16.60
2023-04-28T15:42:18.876Z,16.50
2023-04-28T15:44:45.569Z,16.60
2023-04-28T15:47:12.149Z,16.50
2023-04-28T15:49:39.949Z,16.50
2023-04-28T15:52:06.669Z,16.50
2023-04-28T15:54:33.268Z,16.40
2023-04-28T15:57:00.011Z,16.30
2023-04-28T15:59:26.610Z,16.20
2023-04-28T16:01:55.395Z,16.20
2023-04-28T16:04:22.547Z,16.10
2023-04-28T16:06:52.009Z,16.00
2023-04-28T16:09:18.883Z,15.90
2023-04-28T16:11:45.509Z,15.90
2023-04-28T16:14:12.229Z,15.80
2023-04-28T16:16:39.064Z,15.80
2023-04-28T16:19:05.693Z,15.80
2023-04-28T16:21:33.281Z,15.80
2023-04-28T16:23:59.910Z,15.70
2023-04-28T16:26:26.841Z,15.70
2023-04-28T16:28:53.495Z,15.70
2023-04-28T16:31:20.255Z,15.70
2023-04-28T16:33:47.009Z,15.60
2023-04-28T16:36:13.726Z,15.60
2023-04-28T16:38:41.030Z,15.60
2023-04-28T16:41:07.718Z,15.50
2023-04-28T16:43:36.247Z,15.50
2023-04-28T16:46:03.081Z,15.50
2023-04-28T16:48:29.994Z,15.40
2023-04-28T16:50:56.623Z,15.30
2023-04-28T16:53:23.713Z,15.20
2023-04-28T16:55:50.503Z,15.20
2023-04-28T16:58:17.156Z,15.20
2023-04-28T17:00:43.949Z,15.20
2023-04-28T17:03:11.503Z,15.10
2023-04-28T17:05:38.300Z,15.10
2023-04-28T17:08:05.095Z,15.10
2023-04-28T17:10:32.518Z,15.00
2023-04-28T17:12:59.324Z,15.00
2023-04-28T17:15:27.084Z,15.00
2023-04-28T17:17:53.938Z,14.90
2023-04-28T17:20:21.570Z,14.90
2023-04-28T17:22:50.137Z,14.90
2023-04-28T17:25:17.193Z,14.80
2023-04-28T17:27:43.826Z,14.80
2023-04-28T17:30:14.158Z,14.70
2023-04-28T17:32:41.524Z,14.60
2023-04-28T17:35:08.863Z,14.60
2023-04-28T17:37:37.047Z,14.50
2023-04-28T17:40:04.185Z,14.50
2023-04-28T17:42:31.846Z,14.40
2023-04-28T17:44:58.635Z,14.30
2023-04-28T17:47:25.490Z,14.30
2023-04-28T17:49:52.293Z,14.20
2023-04-28T17:52:19.042Z,14.20
2023-04-28T17:54:45.747Z,14.20
2023-04-28T17:57:13.057Z,14.10
2023-04-28T17:59:40.601Z,14.10
2023-04-28T18:02:11.577Z,14.00
2023-04-28T18:04:38.539Z,14.00
2023-04-28T18:07:06.545Z,13.90
2023-04-28T18:09:33.346Z,13.90
2023-04-28T18:12:02.998Z,13.80
2023-04-28T18:14:29.996Z,13.80
2023-04-28T18:16:56.921Z,13.70
2023-04-28T18:19:28.210Z,13.70
2023-04-28T18:21:57.128Z,13.70
2023-04-28T18:24:24.524Z,13.70
2023-04-28T18:26:51.220Z,13.60
2023-04-28T18:29:18.976Z,13.60
2023-04-28T18:31:46.332Z,13.50
2023-04-28T18:34:13.316Z,13.40
2023-04-28T18:36:40.250Z,13.40
2023-04-28T18:39:08.745Z,13.30
2023-04-28T18:41:36.696Z,13.10
2023-04-28T18:44:03.428Z,13.00
2023-04-28T18:46:30.500Z,12.80
2023-04-28T18:48:57.225Z,12.70
2023-04-28T18:51:24.122Z,12.60
2023-04-28T18:53:50.795Z,12.60
2023-04-28T18:56:17.510Z,12.60
2023-04-28T18:58:45.727Z,12.50
2023-04-28T19:01:16.780Z,12.50
2023-04-28T19:03:44.189Z,12.50
2023-04-28T19:06:11.101Z,12.50
2023-04-28T19:08:42.810Z,12.50
2023-04-28T19:11:09.611Z,12.50
2023-04-28T19:13:36.752Z,12.50
2023-04-28T19:16:03.865Z,12.50
2023-04-28T19:18:31.504Z,12.40
2023-04-28T19:21:00.788Z,12.40
2023-04-28T19:23:28.290Z,12.40
2023-04-28T19:25:56.960Z,12.40
2023-04-28T19:28:25.996Z,12.30
2023-04-28T19:30:54.051Z,12.30
2023-04-28T19:33:21.107Z,12.30
2023-04-28T19:35:47.876Z,12.30
2023-04-28T19:38:16.768Z,12.30
2023-04-28T19:40:44.273Z,12.20
2023-04-28T19:43:11.543Z,12.20
2023-04-28T19:45:38.536Z,12.20
2023-04-28T19:48:05.570Z,12.20
2023-04-28T19:50:32.400Z,12.20
2023-04-28T19:52:59.130Z,12.20
2023-04-28T19:55:25.858Z,12.10
2023-04-28T19:57:53.564Z,12.10
2023-04-28T20:00:21.597Z,12.10
2023-04-28T20:02:48.463Z,12.00
2023-04-28T20:05:15.215Z,12.00
2023-04-28T20:07:42.147Z,12.00
2023-04-28T20:10:09.490Z,12.00
2023-04-28T20:12:36.105Z,12.00
2023-04-28T20:15:02.775Z,12.00
2023-04-28T20:17:29.370Z,12.00
2023-04-28T20:19:56.498Z,12.00
2023-04-28T20:22:23.226Z,12.00
2023-04-28T20:24:50.174Z,12.00
2023-04-28T20:27:16.761Z,11.90
2023-04-28T20:29:43.547Z,12.00
2023-04-28T20:32:10.591Z,11.90
2023-04-28T20:34:37.270Z,12.00
2023-04-28T20:37:06.347Z,12.00
2023-04-28T20:39:33.242Z,11.90
2023-04-28T20:42:02.051Z,11.90
2023-04-28T20:44:28.762Z,11.90
2023-04-28T20:46:55.528Z,11.90
2023-04-28T20:49:22.266Z,11.90
2023-04-28T20:51:48.903Z,11.90
2023-04-28T20:54:15.582Z,11.90
2023-04-28T20:56:43.087Z,11.90
2023-04-28T20:59:09.715Z,11.90
2023-04-28T21:01:36.345Z,11.90
2023-04-28T21:04:03.282Z,11.90
2023-04-28T21:06:29.980Z,11.90
2023-04-28T21:08:56.588Z,11.90
2023-04-28T21:11:23.232Z,12.00
2023-04-28T21:13:50.384Z,12.00
2023-04-28T21:16:20.923Z,12.00
2023-04-28T21:18:48.095Z,11.90
2023-04-28T21:21:14.853Z,11.90
2023-04-28T21:23:42.757Z,11.90
2023-04-28T21:26:10.166Z,11.90
2023-04-28T21:28:39.795Z,11.90
2023-04-28T21:31:06.635Z,11.90
2023-04-28T21:33:33.339Z,11.90
2023-04-28T21:36:05.539Z,11.90
2023-04-28T21:38:33.351Z,11.90
2023-04-28T21:41:00.501Z,11.90
2023-04-28T21:43:27.124Z,11.90
2023-04-28T21:45:53.800Z,11.90
2023-04-28T21:48:21.353Z,11.90
2023-04-28T21:50:48.017Z,11.90
2023-04-28T21:53:14.741Z,11.90
2023-04-28T21:55:44.196Z,11.80
2023-04-28T21:58:10.955Z,11.80
2023-04-28T22:00:41.810Z,11.80
2023-04-28T22:03:08.892Z,11.80
2023-04-28T22:05:35.903Z,11.80
2023-04-28T22:08:04.189Z,11.80
2023-04-28T22:10:32.585Z,11.80
2023-04-28T22:13:00.942Z,11.80
2023-04-28T22:15:27.730Z,11.70
2023-04-28T22:17:54.448Z,11.70
2023-04-28T22:20:21.501Z,11.70
2023-04-28T22:22:48.134Z,11.70
2023-04-28T22:25:14.800Z,11.70
2023-04-28T22:27:41.677Z,11.70
2023-04-28T22:30:08.717Z,11.70
2023-04-28T22:32:35.555Z,11.70
2023-04-28T22:35:02.327Z,11.70
2023-04-28T22:37:29.392Z,11.70
2023-04-28T22:39:56.070Z,11.70
2023-04-28T22:42:22.741Z,11.70
2023-04-28T22:44:49.376Z,11.70
2023-04-28T22:47:16.226Z,11.70
2023-04-28T22:49:43.378Z,11.70
2023-04-28T22:52:10.213Z,11.70
2023-04-28T22:54:38.791Z,11.80
2023-04-28T22:57:05.425Z,11.70
2023-04-28T22:59:33.281Z,11.80
2023-04-28T23:01:59.996Z,11.70
2023-04-28T23:04:26.888Z,11.80
2023-04-28T23:06:53.714Z,11.80
2023-04-28T23:09:20.933Z,11.70
2023-04-28T23:11:47.566Z,11.70
2023-04-28T23:14:14.281Z,11.70
2023-04-28T23:16:41.094Z,11.80
2023-04-28T23:19:08.695Z,11.80
2023-04-28T23:21:35.653Z,11.70
2023-04-28T23:24:02.281Z,11.80
2023-04-28T23:26:28.912Z,11.80
2023-04-28T23:28:55.580Z,11.70
2023-04-28T23:31:22.181Z,11.70
2023-04-28T23:33:48.820Z,11.70
2023-04-28T23:36:15.409Z,11.60
2023-04-28T23:38:42.210Z,11.60
2023-04-28T23:41:09.019Z,11.60
2023-04-28T23:43:35.691Z,11.60
2023-04-28T23:46:02.660Z,11.60
2023-04-28T23:48:29.426Z,11.60
2023-04-28T23:50:56.713Z,11.60
2023-04-28T23:53:23.377Z,11.60
2023-04-28T23:55:50.513Z,11.60
2023-04-28T23:58:17.343Z,11.50
